Flight Track Log - Related Links

Times and Time Zones

All times are in EDT time to prevent confusion due to time zone crossing. See the UPS1231 flight status page for this flight to view local times or setup timezone preferences in your user account.

Time Position Orientation Groundspeed Altitude Reporting Facility
EDT Latitude Longitude Course Direction KTS MPH feet Rate Location/Type
Fri 10:16:43 PM 37.4833 -77.3333 270° West 149 171 1,900  Level Potomac TRACON
Fri 10:17:49 PM 37.4833 -77.4000 270° West 215 247 3,800 1,324 Climbing Potomac TRACON
Fri 10:18:59 PM 37.4742 -77.4969 263° West 245 282 4,900 2,565 Climbing Washington Center
Fri 10:24:22 PM 37.3557 -78.0555 252° West 337 388 20,600 2,884 Climbing FlightAware ADS-B (KWWD)
Fri 10:25:26 PM 37.3231 -78.1766 251° West 348 400 23,500 2,375 Climbing FlightAware ADS-B (KWWD)
Fri 10:25:58 PM 37.3144 -78.2214 251° West 346 398 24,400 1,613 Climbing Washington Center
Fri 10:26:59 PM 37.2972 -78.3358 259° West 341 392 26,000 1,279 Climbing Washington Center
Fri 10:28:00 PM 37.3650 -78.4636 304° West 358 412 27,000 492 Climbing Washington Center
Fri 10:29:01 PM 37.4058 -78.5881 292° West 368 423 27,000  Level Washington Center
Fri 10:29:58 PM 37.4444 -78.7125 291° West 383 441 27,000 462 Level Washington Center
Fri 10:30:58 PM 37.4828 -78.8372 291° West 383 441 27,900 992 Climbing Washington Center
Fri 10:31:59 PM 37.5192 -78.9539 291° West 395 455 29,000 1,328 Climbing Washington Center
Fri 10:33:00 PM 37.5508 -79.0889 287° West 400 460 30,600 1,513 Climbing Washington Center
Fri 10:33:58 PM 37.5550 -79.2306 272° West 384 442 32,000 712 Climbing Washington Center
Fri 10:34:58 PM 37.5556 -79.3483 270° West 378 435 32,000  Level Washington Center
Fri 10:35:59 PM 37.5572 -79.4900 271° West 373 429 32,000  Level Washington Center
Fri 10:37:00 PM 37.5575 -79.6053 270° West 373 429 32,000  Level Washington Center
Fri 10:38:00 PM 37.5589 -79.7519 271° West 373 429 32,000  Level Washington Center
Fri 10:38:58 PM 37.5603 -79.8883 271° West 378 435 32,000  Level Washington Center
Fri 10:40:00 PM 37.5597 -80.0167 270° West 383 441 32,000  Level Washington Center
Fri 10:40:59 PM 37.5589 -80.1478 270° West 383 441 32,000  Level Washington Center
Fri 10:42:58 PM 37.5592 -80.3922 270° West 375 432 32,000  Level Indianapolis Center
Fri 10:43:59 PM 37.5606 -80.5183 271° West 373 429 32,000  Level Indianapolis Center
Fri 10:45:00 PM 37.5592 -80.6703 269° West 373 429 32,000  Level Indianapolis Center
Fri 10:46:01 PM 37.5589 -80.7972 270° West 373 429 32,000  Level Indianapolis Center
Fri 10:47:02 PM 37.5586 -80.9228 270° West 372 428 32,000  Level Indianapolis Center
Fri 10:48:04 PM 37.5581 -81.0489 270° West 372 428 32,000  Level Indianapolis Center
Fri 10:49:05 PM 37.5569 -81.1753 269° West 372 428 32,000  Level Indianapolis Center
Fri 10:50:06 PM 37.5572 -81.3272 270° West 372 428 32,000  Level Indianapolis Center
Fri 10:51:07 PM 37.5553 -81.4531 269° West 372 428 32,000  Level Indianapolis Center
Fri 10:52:08 PM 37.5547 -81.5878 270° West 371 427 32,000  Level Indianapolis Center
Fri 10:53:09 PM 37.5536 -81.7169 269° West 371 427 32,000  Level Indianapolis Center
Fri 10:54:10 PM 37.5511 -81.8461 269° West 371 427 32,000  Level Indianapolis Center
Fri 10:55:12 PM 37.5511 -81.9753 270° West 371 427 32,000  Level Indianapolis Center
Fri 10:56:13 PM 37.5489 -82.1036 269° West 370 426 32,000  Level Indianapolis Center
Fri 10:57:14 PM 37.5467 -82.2300 269° West 368 423 32,000  Level Indianapolis Center
Fri 10:58:15 PM 37.5447 -82.3575 269° West 367 422 32,000  Level Indianapolis Center
Fri 10:59:16 PM 37.5428 -82.5064 269° West 367 422 32,000  Level Indianapolis Center
Fri 11:00:17 PM 37.5400 -82.6347 268° West 367 422 32,000  Level Indianapolis Center
Fri 11:01:18 PM 37.5375 -82.7622 269° West 367 422 32,000  Level Indianapolis Center
Fri 11:02:19 PM 37.5344 -82.8886 268° West 366 421 32,000  Level Indianapolis Center
Fri 11:03:20 PM 37.5319 -83.0158 269° West 366 421 32,000  Level Indianapolis Center
Fri 11:04:21 PM 37.5294 -83.1417 269° West 366 421 32,000  Level Indianapolis Center
Fri 11:05:22 PM 37.5247 -83.2664 267° West 363 418 32,000  Level Indianapolis Center
Fri 11:06:23 PM 37.5219 -83.3933 268° West 362 417 32,000 -197 Level Indianapolis Center
Fri 11:07:24 PM 37.5192 -83.5197 268° West 362 417 31,600 -941 Descending Indianapolis Center
Fri 11:13:30 PM 37.4936 -84.3239 268° West 379 436 25,300 -1,180 Descending Indianapolis Center
Fri 11:14:31 PM 37.4903 -84.4592 268° West 382 440 23,200 -2,607 Descending Indianapolis Center
Fri 11:15:32 PM 37.4861 -84.6000 268° West 396 456 20,000 -3,098 Descending Indianapolis Center
Fri 11:16:33 PM 37.5019 -84.7422 278° West 394 453 16,900 -2,826 Descending Indianapolis Center
Fri 11:17:33 PM 37.5678 -84.8358 312° West 385 443 14,300 -2,628 Descending Indianapolis Center
Fri 11:18:34 PM 37.6383 -84.9311 313° West 377 434 11,600 -1,869 Descending Indianapolis Center
Fri 11:19:35 PM 37.7025 -85.0186 313° West 347 399 10,500 -787 Descending Indianapolis Center
Fri 11:20:36 PM 37.7381 -85.1069 297° West 290 334 10,000 -954 Descending Indianapolis Center
Fri 11:26:24 PM 37.8939 -85.5946 310° West 222 255 4,000 -909 Descending FlightAware ADS-B (KIXA)
Fri 11:27:12 PM 37.9177 -85.6290 313° West 193 222 4,000  Level FlightAware ADS-B (KIXA)
Fri 11:27:42 PM 37.9381 -85.6572 313° West 215 247 4,000  Level Indianapolis Center
Fri 11:28:43 PM 37.9850 -85.6822 337° Northwest 198 228 4,000 -446 Level Indianapolis Center
Fri 11:29:43 PM 38.0311 -85.6961 347° North 182 209 3,100 -645 Descending Indianapolis Center
Fri 11:30:44 PM 38.0731 -85.7114 344° North 178 205 2,700 -393 Descending Indianapolis Center
Fri 11:33:00 PM 38.1741 -85.7365 345° North  Level Estimated
Fri 11:40:00 PM 38.1741 -85.7365 208° Southwest  Level Estimated
Fri 11:41:00 PM 38.1741 -85.7365 208° Southwest  Level Estimated

Login

Don't have an account? Register now (free) for customized features, flight alerts, and more!